createdAt,value
2023-03-12T00:00:41.930Z,59.37
2023-03-12T00:03:44.885Z,59.33
2023-03-12T00:06:47.167Z,58.17
2023-03-12T00:09:49.562Z,58.30
2023-03-12T00:12:52.028Z,57.40
2023-03-12T00:15:54.512Z,56.61
2023-03-12T00:18:56.692Z,56.74
2023-03-12T00:21:59.159Z,57.13
2023-03-12T00:25:01.823Z,56.05
2023-03-12T00:28:04.309Z,57.26
2023-03-12T00:31:24.872Z,57.03
2023-03-12T00:34:27.479Z,57.74
2023-03-12T00:37:29.671Z,57.29
2023-03-12T00:40:32.089Z,57.46
2023-03-12T00:43:34.634Z,57.46
2023-03-12T00:46:37.163Z,56.63
2023-03-12T00:49:39.715Z,56.92
2023-03-12T00:52:42.292Z,56.25
2023-03-12T00:55:44.450Z,56.94
2023-03-12T00:58:46.903Z,57.69
2023-03-12T01:01:49.446Z,57.81
2023-03-12T01:04:52.222Z,57.87
2023-03-12T01:07:54.453Z,58.43
2023-03-12T01:10:56.961Z,58.29
2023-03-12T01:14:00.407Z,57.96
2023-03-12T01:17:02.854Z,56.92
2023-03-12T01:20:05.820Z,57.46
2023-03-12T01:23:09.058Z,56.81
2023-03-12T01:26:11.182Z,57.34
2023-03-12T01:29:13.611Z,57.72
2023-03-12T01:32:17.120Z,56.62
2023-03-12T01:35:19.921Z,57.10
2023-03-12T01:38:22.099Z,57.49
2023-03-12T01:41:27.261Z,57.35
2023-03-12T01:44:29.719Z,57.78
2023-03-12T01:47:32.886Z,57.32
2023-03-12T01:50:36.712Z,57.25
2023-03-12T01:53:43.186Z,57.34
2023-03-12T01:56:46.777Z,56.71
2023-03-12T01:59:54.660Z,56.95
2023-03-12T02:03:02.347Z,57.28
2023-03-12T02:06:13.097Z,58.15
2023-03-12T02:09:20.155Z,57.97
2023-03-12T02:12:22.780Z,58.83
2023-03-12T02:15:24.931Z,59.62
2023-03-12T02:18:28.106Z,58.52
2023-03-12T02:21:34.038Z,58.74
2023-03-12T02:24:43.478Z,59.95
2023-03-12T02:27:46.527Z,60.70
2023-03-12T02:30:52.925Z,61.38
2023-03-12T02:33:56.024Z,60.91
2023-03-12T02:36:58.478Z,60.11
2023-03-12T02:40:19.793Z,60.79
2023-03-12T02:43:23.201Z,61.29
2023-03-12T02:46:25.747Z,61.63
2023-03-12T02:49:31.548Z,62.06
2023-03-12T02:52:36.195Z,62.57
2023-03-12T02:55:38.722Z,63.30
2023-03-12T02:58:42.946Z,63.55
2023-03-12T03:01:45.950Z,63.88
2023-03-12T03:04:48.164Z,65.31
2023-03-12T03:07:50.634Z,64.33
2023-03-12T03:10:53.129Z,65.16
2023-03-12T03:13:55.991Z,64.91
2023-03-12T03:16:58.513Z,65.28
2023-03-12T03:20:01.139Z,64.77
2023-03-12T03:23:04.580Z,65.72
2023-03-12T03:26:07.144Z,65.64
2023-03-12T03:29:09.350Z,65.45
2023-03-12T03:32:12.129Z,65.71
2023-03-12T03:35:14.444Z,66.66
2023-03-12T03:38:16.918Z,65.93
2023-03-12T03:41:20.648Z,66.65
2023-03-12T03:44:24.022Z,66.95
2023-03-12T03:47:26.409Z,65.16
2023-03-12T03:50:29.361Z,66.45
2023-03-12T03:53:32.186Z,67.01
2023-03-12T03:56:34.845Z,67.17
2023-03-12T03:59:37.525Z,68.96
2023-03-12T04:02:40.240Z,67.93
2023-03-12T04:05:45.262Z,68.59
2023-03-12T04:08:48.132Z,68.96
2023-03-12T04:11:51.061Z,69.40
2023-03-12T04:14:53.926Z,70.92
2023-03-12T04:17:56.497Z,71.03
2023-03-12T04:20:59.332Z,72.20
2023-03-12T04:24:02.323Z,72.40
2023-03-12T04:27:05.133Z,72.80
2023-03-12T04:30:10.137Z,72.51
2023-03-12T04:33:12.822Z,73.37
2023-03-12T04:36:16.211Z,73.50
2023-03-12T04:39:19.776Z,73.58
2023-03-12T04:42:23.013Z,73.62
2023-03-12T04:45:25.377Z,74.13
2023-03-12T04:48:28.040Z,75.57
2023-03-12T04:51:31.717Z,75.44
2023-03-12T04:54:35.639Z,75.95
2023-03-12T04:57:37.878Z,75.06
2023-03-12T05:00:41.522Z,74.37
2023-03-12T05:03:44.088Z,74.15
2023-03-12T05:06:46.909Z,73.50
2023-03-12T05:09:49.179Z,73.25
2023-03-12T05:12:51.751Z,72.47
2023-03-12T05:15:54.462Z,72.66
2023-03-12T05:18:57.143Z,71.74
2023-03-12T05:21:59.822Z,71.62
2023-03-12T05:25:03.400Z,71.57
2023-03-12T05:28:05.898Z,70.85
2023-03-12T05:31:10.495Z,70.91
2023-03-12T05:34:14.146Z,70.82
2023-03-12T05:37:17.650Z,70.91
2023-03-12T05:40:20.739Z,71.53
2023-03-12T05:43:23.845Z,70.53
2023-03-12T05:46:27.591Z,70.43
2023-03-12T05:49:30.961Z,71.14
2023-03-12T05:52:33.640Z,69.80
2023-03-12T05:55:37.857Z,70.39
2023-03-12T05:58:40.358Z,69.94
2023-03-12T06:01:43.378Z,68.59
2023-03-12T06:04:46.181Z,68.52
2023-03-12T06:07:48.845Z,68.35
2023-03-12T06:10:54.727Z,67.21
2023-03-12T06:13:57.309Z,66.29
2023-03-12T06:17:00.281Z,65.24
2023-03-12T06:20:02.655Z,64.94
2023-03-12T06:23:05.268Z,64.64
2023-03-12T06:26:08.423Z,63.96
2023-03-12T06:29:11.137Z,64.48
2023-03-12T06:32:13.961Z,65.17
2023-03-12T06:35:16.497Z,64.96
2023-03-12T06:38:18.630Z,64.28
2023-03-12T06:41:21.130Z,63.07
2023-03-12T06:44:23.589Z,63.82
2023-03-12T06:47:26.008Z,63.53
2023-03-12T06:50:28.178Z,62.52
2023-03-12T06:53:31.214Z,63.78
2023-03-12T06:56:33.568Z,63.91
2023-03-12T06:59:36.204Z,64.14
2023-03-12T07:02:38.480Z,63.21
2023-03-12T07:05:44.913Z,62.12
2023-03-12T07:08:47.739Z,61.62
2023-03-12T07:11:50.170Z,62.53
2023-03-12T07:14:52.272Z,62.92
2023-03-12T07:17:54.759Z,62.28
2023-03-12T07:20:57.013Z,62.09
2023-03-12T07:24:00.746Z,62.39
2023-03-12T07:27:04.163Z,62.24
2023-03-12T07:30:07.312Z,62.53
2023-03-12T07:33:13.053Z,62.42
2023-03-12T07:36:15.695Z,61.50
2023-03-12T07:39:18.373Z,60.89
2023-03-12T07:42:20.963Z,60.55
2023-03-12T07:45:24.519Z,59.92
2023-03-12T07:48:27.136Z,59.90
2023-03-12T07:51:29.300Z,59.87
2023-03-12T07:54:31.784Z,58.85
2023-03-12T07:57:36.419Z,58.27
2023-03-12T08:00:39.544Z,59.02
2023-03-12T08:03:43.007Z,58.30
2023-03-12T08:06:45.382Z,57.44
2023-03-12T08:09:49.523Z,56.30
2023-03-12T08:12:51.857Z,55.37
2023-03-12T08:15:54.750Z,54.09
2023-03-12T08:18:57.587Z,53.43
2023-03-12T08:22:00.022Z,53.32
2023-03-12T08:25:02.570Z,50.71
2023-03-12T08:28:05.318Z,48.04
2023-03-12T08:31:09.436Z,45.78
2023-03-12T08:34:11.878Z,42.93
2023-03-12T08:37:14.175Z,42.76
2023-03-12T08:40:18.899Z,41.40
2023-03-12T08:43:21.007Z,39.33
2023-03-12T08:46:23.601Z,39.04
2023-03-12T08:49:26.522Z,39.42
2023-03-12T08:52:28.935Z,36.81
2023-03-12T08:55:31.122Z,36.76
2023-03-12T08:58:33.667Z,36.96
2023-03-12T09:01:35.882Z,35.75
2023-03-12T09:04:38.383Z,35.15
2023-03-12T09:07:41.100Z,34.12
2023-03-12T09:10:50.000Z,34.83
2023-03-12T09:14:26.604Z,34.74
2023-03-12T09:17:14.793Z,33.81
2023-03-12T09:20:17.072Z,35.18
2023-03-12T09:23:20.020Z,34.57
2023-03-12T09:26:22.176Z,35.23
2023-03-12T09:29:24.859Z,34.06
2023-03-12T09:32:27.536Z,35.73
2023-03-12T09:35:31.557Z,35.61
2023-03-12T09:38:35.445Z,34.61
2023-03-12T09:41:40.597Z,35.31
2023-03-12T09:44:47.001Z,36.18
2023-03-12T09:48:01.530Z,36.63
2023-03-12T09:51:17.024Z,36.77
2023-03-12T09:54:40.977Z,35.04
2023-03-12T09:57:44.759Z,35.88
2023-03-12T10:00:47.728Z,36.38
2023-03-12T10:04:11.727Z,35.90
2023-03-12T10:07:28.759Z,36.71
2023-03-12T10:10:49.572Z,36.44
2023-03-12T10:14:10.303Z,37.08
2023-03-12T10:17:18.712Z,37.25
2023-03-12T10:20:50.834Z,35.69
2023-03-12T10:24:08.748Z,35.33
2023-03-12T10:27:18.889Z,34.19
2023-03-12T10:30:24.643Z,33.01
2023-03-12T10:33:38.916Z,35.69
2023-03-12T10:36:41.693Z,34.45
2023-03-12T10:39:44.726Z,34.24
2023-03-12T10:42:47.670Z,34.75
2023-03-12T10:46:08.248Z,34.33
2023-03-12T10:49:22.614Z,36.19
2023-03-12T10:52:25.021Z,36.29
2023-03-12T10:55:29.988Z,35.66
2023-03-12T10:58:47.138Z,36.41
2023-03-12T11:01:52.604Z,37.29
2023-03-12T11:04:54.785Z,38.36
2023-03-12T11:08:00.276Z,38.49
2023-03-12T11:11:04.828Z,34.46
2023-03-12T11:14:15.298Z,35.19
2023-03-12T11:17:23.890Z,34.92
2023-03-12T11:20:29.727Z,34.69
2023-03-12T11:23:31.867Z,33.22
2023-03-12T11:26:42.260Z,32.23
2023-03-12T11:29:48.676Z,32.36
2023-03-12T11:32:51.892Z,31.69
2023-03-12T11:36:37.128Z,31.38
2023-03-12T11:40:09.923Z,29.97
2023-03-12T11:43:44.283Z,29.73
2023-03-12T11:47:01.868Z,30.08
2023-03-12T11:50:33.867Z,29.30
2023-03-12T11:54:00.528Z,28.75
2023-03-12T11:57:13.201Z,28.08
2023-03-12T12:00:21.834Z,28.63
2023-03-12T12:04:03.956Z,28.67
2023-03-12T12:07:15.938Z,28.00
2023-03-12T12:10:50.890Z,27.53
2023-03-12T12:14:08.182Z,27.55
2023-03-12T12:17:16.764Z,26.29
2023-03-12T12:20:21.979Z,26.96
2023-03-12T12:23:55.429Z,26.83
2023-03-12T12:27:28.640Z,25.52
2023-03-12T12:30:49.538Z,26.10
2023-03-12T12:34:01.930Z,25.64
2023-03-12T12:37:28.476Z,25.55
2023-03-12T12:40:41.479Z,24.86
2023-03-12T12:43:49.460Z,25.01
2023-03-12T12:47:05.504Z,25.03
2023-03-12T12:50:18.517Z,24.97
2023-03-12T12:53:37.639Z,24.60
2023-03-12T12:56:50.176Z,24.24
2023-03-12T13:00:14.743Z,24.52
2023-03-12T13:03:23.885Z,23.97
2023-03-12T13:06:29.991Z,24.79
2023-03-12T13:09:52.202Z,24.28
2023-03-12T13:12:56.403Z,22.95
2023-03-12T13:16:35.538Z,22.71
2023-03-12T13:19:45.058Z,23.13
2023-03-12T13:23:18.619Z,21.57
2023-03-12T13:26:20.738Z,21.85
2023-03-12T13:29:29.144Z,22.00
2023-03-12T13:32:34.160Z,22.60
2023-03-12T13:35:39.165Z,22.99
2023-03-12T13:38:55.355Z,22.81
2023-03-12T13:41:59.529Z,22.49
2023-03-12T13:45:30.514Z,22.83
2023-03-12T13:48:36.836Z,22.43
2023-03-12T13:51:53.507Z,22.42
2023-03-12T13:55:14.749Z,22.57
2023-03-12T13:58:21.509Z,22.11
2023-03-12T14:01:29.399Z,22.03
2023-03-12T14:04:40.956Z,22.66
2023-03-12T14:08:12.585Z,21.90
2023-03-12T14:11:41.381Z,22.61
2023-03-12T14:15:10.285Z,23.26
2023-03-12T14:18:22.480Z,22.49
2023-03-12T14:21:31.524Z,20.94
2023-03-12T14:24:41.757Z,21.13
2023-03-12T14:27:47.573Z,22.24
2023-03-12T14:31:02.869Z,22.62
2023-03-12T14:34:40.512Z,23.25
2023-03-12T14:37:51.195Z,22.19
2023-03-12T14:41:05.108Z,22.88
2023-03-12T14:44:25.016Z,23.92
2023-03-12T14:47:27.948Z,24.56
2023-03-12T14:50:39.056Z,24.82
2023-03-12T14:53:41.170Z,25.17
2023-03-12T14:56:45.422Z,25.77
2023-03-12T14:59:59.039Z,25.45
2023-03-12T15:03:05.345Z,25.02
2023-03-12T15:06:34.578Z,24.92
2023-03-12T15:09:37.165Z,23.54
2023-03-12T15:12:39.488Z,23.68
2023-03-12T15:15:54.766Z,23.89
2023-03-12T15:18:57.297Z,23.81
2023-03-12T15:22:00.532Z,24.53
2023-03-12T15:25:14.913Z,25.17
2023-03-12T15:28:18.244Z,25.83
2023-03-12T15:31:20.579Z,26.17
2023-03-12T15:34:38.116Z,26.21
2023-03-12T15:37:41.177Z,25.55
2023-03-12T15:40:50.331Z,25.29
2023-03-12T15:43:55.655Z,25.49
2023-03-12T15:47:05.933Z,24.38
2023-03-12T15:50:20.295Z,25.03
2023-03-12T15:53:27.365Z,24.29
2023-03-12T15:56:32.624Z,24.54
2023-03-12T15:59:35.081Z,24.58
2023-03-12T16:02:40.056Z,24.90
2023-03-12T16:05:42.909Z,25.58
2023-03-12T16:09:06.134Z,25.96
2023-03-12T16:12:10.190Z,26.42
2023-03-12T16:15:26.021Z,25.87
2023-03-12T16:18:28.463Z,27.30
2023-03-12T16:21:30.633Z,27.10
2023-03-12T16:24:33.050Z,27.22
2023-03-12T16:27:39.250Z,30.16
2023-03-12T16:30:41.876Z,28.82
2023-03-12T16:33:44.872Z,28.78
2023-03-12T16:36:47.379Z,27.73
2023-03-12T16:39:49.559Z,29.28
2023-03-12T16:42:54.661Z,29.45
2023-03-12T16:45:57.914Z,29.20
2023-03-12T16:49:00.851Z,29.36
2023-03-12T16:52:16.170Z,29.07
2023-03-12T16:55:26.312Z,30.85
2023-03-12T16:58:29.504Z,29.80
2023-03-12T17:01:32.002Z,29.40
2023-03-12T17:04:34.264Z,30.07
2023-03-12T17:07:36.804Z,29.86
2023-03-12T17:10:38.984Z,30.82
2023-03-12T17:13:41.524Z,30.53
2023-03-12T17:16:44.006Z,31.53
2023-03-12T17:19:46.588Z,32.62
2023-03-12T17:22:48.900Z,33.88
2023-03-12T17:25:51.373Z,31.62
2023-03-12T17:28:53.545Z,31.89
2023-03-12T17:31:55.981Z,32.11
2023-03-12T17:35:02.959Z,31.69
2023-03-12T17:38:05.661Z,32.15
2023-03-12T17:41:23.487Z,32.92
2023-03-12T17:44:34.474Z,33.64
2023-03-12T17:47:36.784Z,33.54
2023-03-12T17:50:39.465Z,34.83
2023-03-12T17:53:42.052Z,34.74
2023-03-12T17:56:44.606Z,34.78
2023-03-12T17:59:46.828Z,35.71
2023-03-12T18:02:50.165Z,35.24
2023-03-12T18:05:52.758Z,35.79
2023-03-12T18:08:54.960Z,35.85
2023-03-12T18:11:57.380Z,35.00
2023-03-12T18:14:59.588Z,37.10
2023-03-12T18:18:01.982Z,37.57
2023-03-12T18:21:04.311Z,39.11
2023-03-12T18:24:14.348Z,40.18
2023-03-12T18:27:17.187Z,39.72
2023-03-12T18:30:21.016Z,40.37
2023-03-12T18:33:23.422Z,40.08
2023-03-12T18:36:25.900Z,41.45
2023-03-12T18:39:28.118Z,42.08
2023-03-12T18:42:30.721Z,42.57
2023-03-12T18:45:32.936Z,42.44
2023-03-12T18:48:35.820Z,42.59
2023-03-12T18:51:38.253Z,43.38
2023-03-12T18:54:40.687Z,43.16
2023-03-12T18:57:43.213Z,44.22
2023-03-12T19:00:45.702Z,45.65
2023-03-12T19:03:47.894Z,45.29
2023-03-12T19:06:51.862Z,45.01
2023-03-12T19:09:54.349Z,43.97
2023-03-12T19:12:56.762Z,44.04
2023-03-12T19:16:04.215Z,44.52
2023-03-12T19:19:06.648Z,44.56
2023-03-12T19:22:08.916Z,45.74
2023-03-12T19:25:11.360Z,46.37
2023-03-12T19:28:13.531Z,46.57
2023-03-12T19:31:16.008Z,46.66
2023-03-12T19:34:18.335Z,47.01
2023-03-12T19:37:22.049Z,46.92
2023-03-12T19:40:24.509Z,47.36
2023-03-12T19:43:27.684Z,47.44
2023-03-12T19:46:31.177Z,48.00
2023-03-12T19:49:36.666Z,48.28
2023-03-12T19:52:38.924Z,47.90
2023-03-12T19:55:41.397Z,47.26
2023-03-12T19:58:44.016Z,47.65
2023-03-12T20:01:46.508Z,47.35
2023-03-12T20:04:48.911Z,48.58
2023-03-12T20:07:52.146Z,49.82
2023-03-12T20:11:01.863Z,50.32
2023-03-12T20:14:04.851Z,50.49
2023-03-12T20:17:07.313Z,51.00
2023-03-12T20:20:10.008Z,50.06
2023-03-12T20:23:12.616Z,50.18
2023-03-12T20:26:15.095Z,50.03
2023-03-12T20:29:17.524Z,50.31
2023-03-12T20:32:19.744Z,50.24
2023-03-12T20:35:22.292Z,49.15
2023-03-12T20:38:24.461Z,52.03
2023-03-12T20:41:26.969Z,50.67
2023-03-12T20:44:29.167Z,49.67
2023-03-12T20:47:34.478Z,51.81
2023-03-12T20:50:37.788Z,52.92
2023-03-12T20:53:40.271Z,52.59
2023-03-12T20:56:44.671Z,53.13
2023-03-12T20:59:47.115Z,53.17
2023-03-12T21:02:49.271Z,53.09
2023-03-12T21:05:56.300Z,54.46
2023-03-12T21:08:58.651Z,52.83
2023-03-12T21:12:01.384Z,51.32
2023-03-12T21:15:06.927Z,52.81
2023-03-12T21:18:09.637Z,53.93
2023-03-12T21:21:11.911Z,53.67
2023-03-12T21:24:14.546Z,53.27
2023-03-12T21:27:16.701Z,53.16
2023-03-12T21:30:19.448Z,53.82
2023-03-12T21:33:21.978Z,55.53
2023-03-12T21:36:25.655Z,54.53
2023-03-12T21:39:28.112Z,53.94
2023-03-12T21:42:32.784Z,54.70
2023-03-12T21:45:34.951Z,54.34
2023-03-12T21:48:37.885Z,53.21
2023-03-12T21:51:40.080Z,53.69
2023-03-12T21:54:42.460Z,52.88
2023-03-12T21:57:45.399Z,52.67
2023-03-12T22:00:47.866Z,52.66
2023-03-12T22:03:50.512Z,53.28
2023-03-12T22:06:52.689Z,53.06
2023-03-12T22:09:55.094Z,53.83
2023-03-12T22:12:57.234Z,54.46
2023-03-12T22:16:02.193Z,52.45
2023-03-12T22:19:04.408Z,52.94
2023-03-12T22:22:06.808Z,54.19
2023-03-12T22:25:09.208Z,54.78
2023-03-12T22:28:11.897Z,53.85
2023-03-12T22:31:14.021Z,52.11
2023-03-12T22:34:16.528Z,55.10
2023-03-12T22:37:18.900Z,53.08
2023-03-12T22:40:21.346Z,52.13
2023-03-12T22:43:26.019Z,51.29
2023-03-12T22:46:29.131Z,52.01
2023-03-12T22:49:31.328Z,51.64
2023-03-12T22:52:35.318Z,51.88
2023-03-12T22:55:37.445Z,51.86
2023-03-12T22:58:40.460Z,51.86
2023-03-12T23:01:42.634Z,51.74
2023-03-12T23:04:45.283Z,51.61
2023-03-12T23:07:47.739Z,51.43
2023-03-12T23:10:57.872Z,50.99
2023-03-12T23:14:00.054Z,50.95
2023-03-12T23:17:02.473Z,51.75
2023-03-12T23:20:05.812Z,51.82
2023-03-12T23:23:08.681Z,51.20
2023-03-12T23:26:14.393Z,51.05
2023-03-12T23:29:16.955Z,51.20
2023-03-12T23:32:19.188Z,51.20
2023-03-12T23:35:21.897Z,51.41
2023-03-12T23:38:24.737Z,51.63
2023-03-12T23:41:31.204Z,51.66
2023-03-12T23:44:33.712Z,52.20
2023-03-12T23:47:36.096Z,52.30
2023-03-12T23:50:38.304Z,52.23
2023-03-12T23:53:42.487Z,52.55
2023-03-12T23:56:44.788Z,52.52
2023-03-12T23:59:47.243Z,52.76
